createdAt,value
2023-05-24T00:02:23.694Z,102265.69
2023-05-24T00:04:51.089Z,102264.97
2023-05-24T00:07:20.695Z,102268.66
2023-05-24T00:09:48.066Z,102272.03
2023-05-24T00:12:15.411Z,102266.81
2023-05-24T00:14:42.832Z,102266.06
2023-05-24T00:17:10.265Z,102259.72
2023-05-24T00:19:37.952Z,102263.16
2023-05-24T00:22:05.322Z,102272.88
2023-05-24T00:24:34.045Z,102267.72
2023-05-24T00:27:01.414Z,102265.34
2023-05-24T00:29:30.815Z,102259.16
2023-05-24T00:32:00.846Z,102259.38
2023-05-24T00:34:28.438Z,102253.38
2023-05-24T00:36:55.855Z,102257.84
2023-05-24T00:39:23.290Z,102248.84
2023-05-24T00:41:52.189Z,102242.00
2023-05-24T00:44:19.514Z,102248.50
2023-05-24T00:46:47.414Z,102242.38
2023-05-24T00:49:16.202Z,102247.97
2023-05-24T00:51:43.479Z,102246.66
2023-05-24T00:54:10.826Z,102254.59
2023-05-24T00:56:38.256Z,102245.00
2023-05-24T00:59:06.940Z,102253.31
2023-05-24T01:01:34.404Z,102250.34
2023-05-24T01:04:02.264Z,102244.84
2023-05-24T01:06:38.476Z,102242.34
2023-05-24T01:09:19.734Z,102242.69
2023-05-24T01:11:59.831Z,102236.19
2023-05-24T01:14:40.293Z,102233.91
2023-05-24T01:17:15.799Z,102228.84
2023-05-24T01:19:52.940Z,102234.38
2023-05-24T01:22:53.763Z,102241.09
2023-05-24T01:25:35.505Z,102242.16
2023-05-24T01:28:04.954Z,102238.81
2023-05-24T01:30:33.062Z,102239.75
2023-05-24T01:33:00.591Z,102231.13
2023-05-24T01:35:27.922Z,102228.13
2023-05-24T01:38:11.706Z,102232.56
2023-05-24T01:40:40.773Z,102235.69
2023-05-24T01:43:15.635Z,102233.91
2023-05-24T01:45:53.568Z,102227.63
2023-05-24T01:48:45.395Z,102225.66
2023-05-24T01:51:19.009Z,102228.06
2023-05-24T01:53:50.601Z,102232.28
2023-05-24T01:56:19.589Z,102232.56
2023-05-24T01:58:50.552Z,102231.81
2023-05-24T02:01:18.311Z,102231.22
2023-05-24T02:03:46.171Z,102229.69
2023-05-24T02:06:14.015Z,102228.91
2023-05-24T02:08:41.409Z,102228.63
2023-05-24T02:11:10.703Z,102226.69
2023-05-24T02:13:39.163Z,102211.84
2023-05-24T02:16:06.927Z,102221.25
2023-05-24T02:18:34.306Z,102215.53
2023-05-24T02:21:01.906Z,102213.72
2023-05-24T02:23:29.337Z,102213.81
2023-05-24T02:25:56.757Z,102218.16
2023-05-24T02:28:25.540Z,102212.88
2023-05-24T02:30:53.010Z,102203.81
2023-05-24T02:33:20.473Z,102213.16
2023-05-24T02:35:48.483Z,102195.16
2023-05-24T02:38:15.836Z,102193.53
2023-05-24T02:40:43.349Z,102205.72
2023-05-24T02:43:10.904Z,102202.38
2023-05-24T02:45:39.801Z,102202.03
2023-05-24T02:48:07.297Z,102197.16
2023-05-24T02:50:35.557Z,102196.63
2023-05-24T02:53:02.975Z,102203.00
2023-05-24T02:55:30.547Z,102197.16
2023-05-24T02:57:58.011Z,102213.16
2023-05-24T03:00:25.820Z,102205.81
2023-05-24T03:02:55.731Z,102211.38
2023-05-24T03:05:23.383Z,102211.09
2023-05-24T03:07:51.291Z,102206.56
2023-05-24T03:10:18.669Z,102205.91
2023-05-24T03:12:45.984Z,102208.66
2023-05-24T03:15:13.486Z,102208.28
2023-05-24T03:17:40.946Z,102204.53
2023-05-24T03:20:10.422Z,102208.66
2023-05-24T03:22:37.799Z,102203.34
2023-05-24T03:25:06.216Z,102200.50
2023-05-24T03:27:33.544Z,102202.50
2023-05-24T03:30:01.524Z,102207.81
2023-05-24T03:32:32.160Z,102201.91
2023-05-24T03:34:59.868Z,102211.41
2023-05-24T03:37:29.367Z,102199.22
2023-05-24T03:39:56.678Z,102204.13
2023-05-24T03:42:59.109Z,102204.19
2023-05-24T03:45:49.707Z,102207.78
2023-05-24T03:48:17.328Z,102202.38
2023-05-24T03:50:45.003Z,102203.38
2023-05-24T03:53:13.928Z,102204.34
2023-05-24T03:55:41.314Z,102202.97
2023-05-24T03:58:08.752Z,102195.75
2023-05-24T04:00:39.100Z,102192.03
2023-05-24T04:03:06.752Z,102194.34
2023-05-24T04:05:34.410Z,102190.72
2023-05-24T04:08:01.830Z,102202.19
2023-05-24T04:10:30.547Z,102207.19
2023-05-24T04:12:57.904Z,102207.63
2023-05-24T04:15:25.137Z,102204.06
2023-05-24T04:17:52.520Z,102199.22
2023-05-24T04:20:20.154Z,102207.88
2023-05-24T04:22:48.744Z,102201.47
2023-05-24T04:25:16.923Z,102209.97
2023-05-24T04:27:45.645Z,102215.31
2023-05-24T04:30:13.401Z,102219.13
2023-05-24T04:32:40.895Z,102221.03
2023-05-24T04:35:08.650Z,102222.50
2023-05-24T04:37:36.149Z,102225.34
2023-05-24T04:40:04.045Z,102214.97
2023-05-24T04:42:31.411Z,102216.50
2023-05-24T04:45:00.188Z,102222.06
2023-05-24T04:47:27.668Z,102222.56
2023-05-24T04:49:54.916Z,102229.66
2023-05-24T04:52:22.487Z,102220.06
2023-05-24T04:54:49.948Z,102224.81
2023-05-24T04:57:17.632Z,102229.53
2023-05-24T04:59:44.922Z,102228.59
2023-05-24T05:02:13.925Z,102229.03
2023-05-24T05:04:44.420Z,102235.31
2023-05-24T05:07:11.708Z,102227.72
2023-05-24T05:09:39.048Z,102231.78
2023-05-24T05:12:06.413Z,102233.19
2023-05-24T05:14:33.752Z,102239.66
2023-05-24T05:17:01.237Z,102233.00
2023-05-24T05:19:29.891Z,102227.91
2023-05-24T05:21:57.251Z,102233.78
2023-05-24T05:24:24.572Z,102226.00
2023-05-24T05:26:51.941Z,102224.91
2023-05-24T05:29:19.269Z,102222.84
2023-05-24T05:31:47.597Z,102230.88
2023-05-24T05:34:15.056Z,102219.19
2023-05-24T05:36:44.816Z,102226.00
2023-05-24T05:39:12.174Z,102219.44
2023-05-24T05:41:40.254Z,102220.22
2023-05-24T05:44:07.599Z,102222.53
2023-05-24T05:46:38.072Z,102217.44
2023-05-24T05:49:06.256Z,102214.75
2023-05-24T05:51:33.728Z,102212.81
2023-05-24T05:54:02.540Z,102212.97
2023-05-24T05:56:29.970Z,102219.28
2023-05-24T05:58:57.303Z,102221.69
2023-05-24T06:01:24.755Z,102219.16
2023-05-24T06:03:52.241Z,102225.69
2023-05-24T06:06:19.578Z,102224.41
2023-05-24T06:08:47.194Z,102230.09
2023-05-24T06:11:15.915Z,102231.53
2023-05-24T06:13:43.252Z,102237.19
2023-05-24T06:16:10.621Z,102232.97
2023-05-24T06:18:38.026Z,102230.38
2023-05-24T06:21:05.400Z,102236.81
2023-05-24T06:23:32.778Z,102241.09
2023-05-24T06:26:00.007Z,102245.97
2023-05-24T06:28:28.725Z,102248.34
2023-05-24T06:30:56.104Z,102241.13
2023-05-24T06:33:23.531Z,102249.03
2023-05-24T06:35:50.904Z,102266.31
2023-05-24T06:38:18.421Z,102259.38
2023-05-24T06:40:46.121Z,102265.84
2023-05-24T06:43:13.601Z,102272.28
2023-05-24T06:45:42.952Z,102273.63
2023-05-24T06:48:10.883Z,102280.00
2023-05-24T06:50:40.250Z,102281.09
2023-05-24T06:53:09.395Z,102282.59
2023-05-24T06:55:36.695Z,102272.53
2023-05-24T06:58:04.074Z,102273.59
2023-05-24T07:00:31.420Z,102292.84
2023-05-24T07:03:00.319Z,102276.50
2023-05-24T07:05:27.627Z,102292.16
2023-05-24T07:07:54.960Z,102285.97
2023-05-24T07:10:22.275Z,102284.59
2023-05-24T07:12:49.622Z,102285.72
2023-05-24T07:15:16.924Z,102286.63
2023-05-24T07:17:44.609Z,102292.47
2023-05-24T07:20:14.133Z,102291.94
2023-05-24T07:22:41.602Z,102301.09
2023-05-24T07:25:09.790Z,102294.72
2023-05-24T07:27:37.089Z,102303.84
2023-05-24T07:30:07.777Z,102310.13
2023-05-24T07:32:39.042Z,102306.03
2023-05-24T07:35:07.513Z,102303.13
2023-05-24T07:37:36.272Z,102302.41
2023-05-24T07:40:03.932Z,102298.75
2023-05-24T07:42:31.492Z,102307.81
2023-05-24T07:44:58.920Z,102300.28
2023-05-24T07:47:26.388Z,102302.38
2023-05-24T07:49:53.799Z,102313.94
2023-05-24T07:52:21.158Z,102311.53
2023-05-24T07:54:49.812Z,102325.28
2023-05-24T07:57:17.166Z,102317.88
2023-05-24T07:59:44.486Z,102325.66
2023-05-24T08:02:11.937Z,102329.28
2023-05-24T08:04:39.376Z,102329.28
2023-05-24T08:07:08.845Z,102321.47
2023-05-24T08:09:38.231Z,102328.44
2023-05-24T08:12:08.041Z,102323.97
2023-05-24T08:14:35.349Z,102330.00
2023-05-24T08:17:02.596Z,102329.22
2023-05-24T08:19:30.013Z,102330.47
2023-05-24T08:21:57.290Z,102322.94
2023-05-24T08:24:24.605Z,102320.44
2023-05-24T08:26:51.980Z,102332.38
2023-05-24T08:29:20.622Z,102335.00
2023-05-24T08:31:47.871Z,102330.09
2023-05-24T08:34:15.683Z,102328.28
2023-05-24T08:36:42.960Z,102340.84
2023-05-24T08:39:10.342Z,102342.44
2023-05-24T08:41:37.836Z,102346.00
2023-05-24T08:44:07.117Z,102357.34
2023-05-24T08:46:37.208Z,102342.16
2023-05-24T08:49:05.348Z,102350.25
2023-05-24T08:51:33.881Z,102364.25
2023-05-24T08:54:02.429Z,102359.84
2023-05-24T08:56:30.888Z,102361.47
2023-05-24T08:58:58.300Z,102375.06
2023-05-24T09:01:27.753Z,102358.59
2023-05-24T09:04:00.279Z,102358.38
2023-05-24T09:06:27.833Z,102357.44
2023-05-24T09:08:56.529Z,102359.25
2023-05-24T09:11:25.578Z,102356.72
2023-05-24T09:13:54.034Z,102357.78
2023-05-24T09:16:21.609Z,102368.28
2023-05-24T09:18:49.193Z,102361.38
2023-05-24T09:21:18.203Z,102362.47
2023-05-24T09:23:45.872Z,102368.72
2023-05-24T09:26:13.413Z,102366.69
2023-05-24T09:28:41.643Z,102358.63
2023-05-24T09:31:09.013Z,102361.41
2023-05-24T09:33:36.430Z,102366.50
2023-05-24T09:36:05.486Z,102362.16
2023-05-24T09:38:34.432Z,102366.38
2023-05-24T09:41:02.896Z,102358.13
2023-05-24T09:43:31.365Z,102371.31
2023-05-24T09:45:58.674Z,102364.97
2023-05-24T09:48:26.201Z,102378.38
2023-05-24T09:51:03.911Z,102381.09
2023-05-24T09:53:32.228Z,102385.06
2023-05-24T09:56:03.247Z,102389.34
2023-05-24T09:58:31.112Z,102400.47
2023-05-24T10:01:04.953Z,102391.22
2023-05-24T10:03:32.487Z,102389.59
2023-05-24T10:06:00.453Z,102385.97
2023-05-24T10:08:28.317Z,102375.25
2023-05-24T10:10:55.772Z,102374.44
2023-05-24T10:13:25.315Z,102370.41
2023-05-24T10:15:52.581Z,102365.84
2023-05-24T10:18:20.030Z,102367.59
2023-05-24T10:20:48.837Z,102375.91
2023-05-24T10:23:20.735Z,102378.50
2023-05-24T10:25:51.813Z,102392.53
2023-05-24T10:28:21.751Z,102385.78
2023-05-24T10:31:00.465Z,102374.66
2023-05-24T10:33:28.662Z,102383.91
2023-05-24T10:35:56.792Z,102384.59
2023-05-24T10:38:24.475Z,102382.84
2023-05-24T10:40:52.300Z,102376.72
2023-05-24T10:43:21.421Z,102385.44
2023-05-24T10:45:50.177Z,102380.03
2023-05-24T10:48:38.994Z,102387.44
2023-05-24T10:51:29.751Z,102388.25
2023-05-24T10:53:57.676Z,102385.78
2023-05-24T10:56:27.598Z,102389.06
2023-05-24T10:59:00.772Z,102385.63
2023-05-24T11:01:29.174Z,102391.81
2023-05-24T11:04:08.749Z,102392.97
2023-05-24T11:06:45.966Z,102399.44
2023-05-24T11:09:14.689Z,102406.28
2023-05-24T11:11:46.053Z,102402.81
2023-05-24T11:14:14.597Z,102394.94
2023-05-24T11:16:45.825Z,102399.56
2023-05-24T11:19:18.170Z,102404.19
2023-05-24T11:21:47.390Z,102395.41
2023-05-24T11:24:16.493Z,102390.84
2023-05-24T11:26:44.369Z,102398.94
2023-05-24T11:29:13.688Z,102402.50
2023-05-24T11:31:47.604Z,102393.75
2023-05-24T11:34:16.737Z,102387.97
2023-05-24T11:36:44.754Z,102394.22
2023-05-24T11:39:12.620Z,102404.44
2023-05-24T11:41:40.506Z,102404.47
2023-05-24T11:44:09.297Z,102414.34
2023-05-24T11:46:38.600Z,102414.56
2023-05-24T11:49:06.232Z,102406.31
2023-05-24T11:51:35.452Z,102417.06
2023-05-24T11:54:02.801Z,102412.09
2023-05-24T11:56:33.544Z,102417.75
2023-05-24T11:59:11.000Z,102405.31
2023-05-24T12:01:38.454Z,102402.78
2023-05-24T12:04:12.000Z,102411.91
2023-05-24T12:06:43.178Z,102418.81
2023-05-24T12:09:12.107Z,102434.00
2023-05-24T12:11:40.596Z,102422.16
2023-05-24T12:14:11.872Z,102414.13
2023-05-24T12:16:39.293Z,102404.44
2023-05-24T12:19:14.009Z,102409.22
2023-05-24T12:21:51.468Z,102406.94
2023-05-24T12:24:20.996Z,102416.13
2023-05-24T12:26:48.547Z,102414.78
2023-05-24T12:29:16.579Z,102402.63
2023-05-24T12:31:46.080Z,102409.78
2023-05-24T12:34:14.020Z,102406.81
2023-05-24T12:36:41.919Z,102414.44
2023-05-24T12:39:22.171Z,102408.53
2023-05-24T12:41:53.276Z,102413.63
2023-05-24T12:44:24.749Z,102404.91
2023-05-24T12:46:53.265Z,102402.06
2023-05-24T12:49:20.831Z,102417.50
2023-05-24T12:51:49.500Z,102414.22
2023-05-24T12:54:20.306Z,102423.06
2023-05-24T12:56:47.859Z,102426.41
2023-05-24T12:59:15.249Z,102421.13
2023-05-24T13:01:42.994Z,102416.72
2023-05-24T13:04:10.688Z,102427.88
2023-05-24T13:06:38.057Z,102426.97
2023-05-24T13:09:05.628Z,102430.69
2023-05-24T13:11:34.363Z,102422.69
2023-05-24T13:14:02.952Z,102431.44
2023-05-24T13:16:30.627Z,102448.94
2023-05-24T13:18:58.124Z,102443.34
2023-05-24T13:21:25.483Z,102432.41
2023-05-24T13:23:52.751Z,102442.78
2023-05-24T13:26:20.206Z,102433.13
2023-05-24T13:29:11.837Z,102448.03
2023-05-24T13:31:36.548Z,102442.25
2023-05-24T13:34:04.098Z,102447.72
2023-05-24T13:36:31.479Z,102454.72
2023-05-24T13:39:13.340Z,102455.25
2023-05-24T13:41:43.720Z,102444.78
2023-05-24T13:44:13.519Z,102448.53
2023-05-24T13:46:42.350Z,102443.97
2023-05-24T13:49:10.912Z,102448.53
2023-05-24T13:51:38.862Z,102456.91
2023-05-24T13:54:06.630Z,102447.53
2023-05-24T13:56:34.403Z,102447.63
2023-05-24T13:59:02.909Z,102433.00
2023-05-24T14:01:32.022Z,102437.78
2023-05-24T14:04:01.164Z,102430.09
2023-05-24T14:06:28.662Z,102427.63
2023-05-24T14:08:56.360Z,102429.63
2023-05-24T14:11:23.927Z,102431.75
2023-05-24T14:16:21.750Z,102434.94
2023-05-24T14:18:50.490Z,102437.97
2023-05-24T14:21:18.691Z,102437.91
2023-05-24T14:23:46.242Z,102443.81
2023-05-24T14:26:13.772Z,102447.44
2023-05-24T14:28:41.063Z,102441.47
2023-05-24T14:31:08.497Z,102436.88
2023-05-24T14:33:35.947Z,102434.81
2023-05-24T14:36:05.075Z,102431.78
2023-05-24T14:38:32.421Z,102430.56
2023-05-24T14:40:59.754Z,102440.28
2023-05-24T14:43:27.257Z,102448.34
2023-05-24T14:45:54.659Z,102444.59
2023-05-24T14:48:22.072Z,102434.72
2023-05-24T14:50:49.557Z,102438.63
2023-05-24T14:53:18.365Z,102438.81
2023-05-24T14:55:45.954Z,102419.28
2023-05-24T14:58:13.926Z,102431.59
2023-05-24T15:00:42.628Z,102410.22
2023-05-24T15:03:10.374Z,102431.97
2023-05-24T15:05:37.872Z,102413.72
2023-05-24T15:08:05.322Z,102432.91
2023-05-24T15:10:34.058Z,102440.09
2023-05-24T15:13:02.107Z,102440.69
2023-05-24T15:15:29.553Z,102435.56
2023-05-24T15:17:56.893Z,102443.94
2023-05-24T15:22:53.018Z,102456.31
2023-05-24T15:25:20.480Z,102451.47
2023-05-24T15:27:49.726Z,102448.03
2023-05-24T15:30:18.902Z,102440.00
2023-05-24T15:32:46.533Z,102441.41
2023-05-24T15:35:14.037Z,102458.56
2023-05-24T15:37:42.265Z,102457.06
2023-05-24T15:40:11.208Z,102448.97
2023-05-24T15:42:38.843Z,102454.19
2023-05-24T15:45:08.904Z,102447.66
2023-05-24T15:47:36.445Z,102442.88
2023-05-24T15:50:04.314Z,102453.78
2023-05-24T15:52:31.613Z,102449.47
2023-05-24T15:54:59.006Z,102455.81
2023-05-24T15:57:26.737Z,102454.28
2023-05-24T15:59:54.619Z,102462.13
2023-05-24T16:02:23.474Z,102456.34
2023-05-24T16:04:51.076Z,102450.97
2023-05-24T16:07:18.380Z,102467.28
2023-05-24T16:09:45.838Z,102462.91
2023-05-24T16:12:13.196Z,102452.50
2023-05-24T16:14:40.616Z,102449.88
2023-05-24T16:17:08.197Z,102457.75
2023-05-24T16:19:37.483Z,102452.94
2023-05-24T16:22:06.590Z,102449.50
2023-05-24T16:24:34.002Z,102453.44
2023-05-24T16:27:01.523Z,102457.63
2023-05-24T16:29:29.028Z,102462.03
2023-05-24T16:31:56.327Z,102451.81
2023-05-24T16:34:26.397Z,102448.59
2023-05-24T16:36:55.078Z,102435.25
2023-05-24T16:39:22.382Z,102438.91
2023-05-24T16:41:51.167Z,102450.41
2023-05-24T16:44:18.521Z,102441.09
2023-05-24T16:46:46.523Z,102445.69
2023-05-24T16:49:14.011Z,102435.41
2023-05-24T16:51:41.404Z,102413.06
2023-05-24T16:54:10.118Z,102427.91
2023-05-24T16:56:37.505Z,102433.03
2023-05-24T16:59:05.491Z,102434.50
2023-05-24T17:01:33.056Z,102437.53
2023-05-24T17:04:00.815Z,102452.78
2023-05-24T17:06:28.418Z,102456.84
2023-05-24T17:08:55.925Z,102446.88
2023-05-24T17:11:24.727Z,102458.69
2023-05-24T17:13:52.157Z,102465.59
2023-05-24T17:16:19.719Z,102466.72
2023-05-24T17:18:47.164Z,102469.91
2023-05-24T17:21:14.675Z,102457.59
2023-05-24T17:23:42.268Z,102472.88
2023-05-24T17:26:09.753Z,102465.63
2023-05-24T17:28:38.564Z,102472.88
2023-05-24T17:31:08.421Z,102478.88
2023-05-24T17:33:36.113Z,102478.97
2023-05-24T17:36:03.926Z,102470.34
2023-05-24T17:38:31.477Z,102468.09
2023-05-24T17:40:59.469Z,102479.22
2023-05-24T17:43:28.000Z,102482.47
2023-05-24T17:45:58.921Z,102486.06
2023-05-24T17:48:26.667Z,102488.91
2023-05-24T17:50:53.971Z,102492.38
2023-05-24T17:53:31.327Z,102488.34
2023-05-24T17:56:01.639Z,102490.38
2023-05-24T17:58:29.467Z,102498.72
2023-05-24T18:00:58.391Z,102501.41
2023-05-24T18:03:25.770Z,102505.50
2023-05-24T18:05:53.224Z,102497.94
2023-05-24T18:08:21.451Z,102512.72
2023-05-24T18:10:48.865Z,102498.38
2023-05-24T18:13:16.351Z,102497.38
2023-05-24T18:15:43.972Z,102499.72
2023-05-24T18:18:13.103Z,102505.38
2023-05-24T18:20:40.661Z,102508.28
2023-05-24T18:23:08.159Z,102504.03
2023-05-24T18:25:35.898Z,102508.22
2023-05-24T18:28:03.264Z,102505.50
2023-05-24T18:30:30.654Z,102512.69
2023-05-24T18:33:07.169Z,102516.25
2023-05-24T18:35:36.742Z,102520.28
2023-05-24T18:38:04.350Z,102514.41
2023-05-24T18:40:31.714Z,102513.16
2023-05-24T18:42:59.149Z,102510.41
2023-05-24T18:45:26.580Z,102508.69
2023-05-24T18:47:54.180Z,102512.50
2023-05-24T18:52:51.068Z,102511.81
2023-05-24T18:55:18.503Z,102519.81
2023-05-24T18:57:45.881Z,102513.72
2023-05-24T19:00:13.788Z,102520.03
2023-05-24T19:02:41.504Z,102521.75
2023-05-24T19:05:11.941Z,102517.56
2023-05-24T19:07:40.841Z,102529.84
2023-05-24T19:10:11.227Z,102519.91
2023-05-24T19:12:38.975Z,102518.66
2023-05-24T19:15:07.984Z,102520.13
2023-05-24T19:17:35.374Z,102523.31
2023-05-24T19:20:03.308Z,102525.56
2023-05-24T19:22:32.261Z,102519.38
2023-05-24T19:24:59.642Z,102522.31
2023-05-24T19:27:29.078Z,102523.78
2023-05-24T19:29:56.440Z,102530.78
2023-05-24T19:32:24.004Z,102528.25
2023-05-24T19:34:51.406Z,102540.97
2023-05-24T19:37:18.924Z,102538.88
2023-05-24T19:39:46.995Z,102537.75
2023-05-24T19:42:14.871Z,102541.59
2023-05-24T19:44:43.658Z,102546.66
2023-05-24T19:47:11.491Z,102555.31
2023-05-24T19:49:38.873Z,102555.84
2023-05-24T19:52:07.860Z,102554.22
2023-05-24T19:54:35.170Z,102555.03
2023-05-24T19:57:02.834Z,102549.97
2023-05-24T19:59:30.166Z,102565.31
2023-05-24T20:01:59.288Z,102566.84
2023-05-24T20:04:26.962Z,102565.44
2023-05-24T20:06:54.506Z,102573.13
2023-05-24T20:09:22.998Z,102563.50
2023-05-24T20:11:50.606Z,102569.47
2023-05-24T20:14:18.230Z,102564.16
2023-05-24T20:16:48.278Z,102576.13
2023-05-24T20:19:17.197Z,102583.38
2023-05-24T20:21:45.178Z,102579.94
2023-05-24T20:24:12.761Z,102590.19
2023-05-24T20:26:40.212Z,102590.94
2023-05-24T20:29:07.774Z,102587.53
2023-05-24T20:31:35.408Z,102595.19
2023-05-24T20:34:02.883Z,102586.56
2023-05-24T20:36:31.596Z,102589.94
2023-05-24T20:38:59.214Z,102596.28
2023-05-24T20:41:27.189Z,102586.56
2023-05-24T20:43:54.575Z,102588.22
2023-05-24T20:46:21.955Z,102595.28
2023-05-24T20:48:49.249Z,102593.16
2023-05-24T20:51:16.701Z,102595.97
2023-05-24T20:53:45.393Z,102599.97
2023-05-24T20:56:12.708Z,102605.47
2023-05-24T20:58:40.129Z,102617.69
2023-05-24T21:01:07.747Z,102612.06
2023-05-24T21:03:35.063Z,102609.41
2023-05-24T21:06:03.161Z,102615.69
2023-05-24T21:08:30.936Z,102612.72
2023-05-24T21:10:59.817Z,102623.22
2023-05-24T21:13:27.164Z,102609.25
2023-05-24T21:15:54.458Z,102613.44
2023-05-24T21:18:21.895Z,102612.00
2023-05-24T21:20:49.309Z,102625.97
2023-05-24T21:23:16.640Z,102623.75
2023-05-24T21:25:44.180Z,102625.03
2023-05-24T21:28:13.090Z,102616.50
2023-05-24T21:30:40.431Z,102618.00
2023-05-24T21:33:07.908Z,102616.22
2023-05-24T21:35:35.400Z,102631.31
2023-05-24T21:38:02.682Z,102632.69
2023-05-24T21:40:30.056Z,102638.69
2023-05-24T21:42:57.321Z,102629.00
2023-05-24T21:45:26.183Z,102629.56
2023-05-24T21:47:53.706Z,102633.50
2023-05-24T21:50:21.370Z,102628.69
2023-05-24T21:52:48.644Z,102631.06
2023-05-24T21:55:16.152Z,102636.56
2023-05-24T21:57:45.434Z,102635.81
2023-05-24T22:00:14.099Z,102641.66
2023-05-24T22:02:43.404Z,102641.56
2023-05-24T22:05:10.818Z,102634.88
2023-05-24T22:07:38.316Z,102641.44
2023-05-24T22:10:06.685Z,102641.91
2023-05-24T22:12:34.717Z,102634.72
2023-05-24T22:15:02.241Z,102644.69
2023-05-24T22:17:30.048Z,102643.22
2023-05-24T22:19:58.993Z,102650.50
2023-05-24T22:22:26.350Z,102648.94
2023-05-24T22:24:53.787Z,102658.22
2023-05-24T22:27:21.156Z,102646.84
2023-05-24T22:29:48.622Z,102650.69
2023-05-24T22:32:16.065Z,102649.56
2023-05-24T22:34:43.377Z,102648.13
2023-05-24T22:37:11.961Z,102652.09
2023-05-24T22:39:39.400Z,102648.34
2023-05-24T22:42:06.736Z,102652.47
2023-05-24T22:44:34.044Z,102652.59
2023-05-24T22:47:01.343Z,102645.22
2023-05-24T22:49:28.957Z,102648.69
2023-05-24T22:52:02.046Z,102650.97
2023-05-24T22:54:30.826Z,102650.69
2023-05-24T22:56:58.059Z,102657.81
2023-05-24T22:59:25.358Z,102649.97
2023-05-24T23:01:52.865Z,102654.31
2023-05-24T23:04:21.847Z,102654.78
2023-05-24T23:06:49.802Z,102655.44
2023-05-24T23:09:17.455Z,102650.75
2023-05-24T23:11:46.922Z,102658.72
2023-05-24T23:14:18.886Z,102655.22
2023-05-24T23:16:47.426Z,102649.66
2023-05-24T23:19:14.726Z,102663.69
2023-05-24T23:21:42.091Z,102652.38
2023-05-24T23:24:09.446Z,102660.03
2023-05-24T23:26:36.768Z,102645.78
2023-05-24T23:29:05.551Z,102656.41
2023-05-24T23:31:32.942Z,102647.50
2023-05-24T23:34:00.305Z,102649.16
2023-05-24T23:36:27.702Z,102661.41
2023-05-24T23:38:55.071Z,102659.09
2023-05-24T23:41:22.506Z,102657.56
2023-05-24T23:43:49.851Z,102657.94
2023-05-24T23:46:18.615Z,102659.94
2023-05-24T23:48:46.033Z,102658.69
2023-05-24T23:51:13.513Z,102667.31
2023-05-24T23:53:40.818Z,102655.66
2023-05-24T23:56:08.106Z,102666.22
2023-05-24T23:58:35.453Z,102660.25
